WXM80 ListenWXM80 Stop

You find our weather info also at:

UK Metoffice

WeatherCloud

Weather Underground

Northeastern Weather Network

AWEKAS

Citizen Weather Observer Program (CWOP)

HAMweather, WeatherForYou, PWS Weather


Weather Underground History page Text

Daily Summary for January 6, 2017 Units:  Both    English   Metric
« Previous Day
Next Day »
Daily Weekly Monthly Yearly Custom
  High: Low: Average:
Temperature: 33.9 °F /  1.1 °C 26.4 °F /  -3.1 °C 30.3 °F /  -0.9 °C
Dew Point: 26.5 °F /  -3.1 °C 13.7 °F /  -10.2 °C 22.4 °F /  -5.3 °C
Humidity: 90 % 57 % 73 %
Wind Speed: 7.3 mph /  11.7 km/h - 2.5 mph /  4 km/h
Wind Gust: 29.0 mph /  46.7 km/h - -
Wind:- - SSW
Pressure: 30.25 in /  1024.3 hPa 29.90 in /  1012.4 hPa -
Precipitation: 0.01 in /  0.25 mm    
Historical Graphs
 
 
Tabular Data for January 6, 2017
Time Temperature Dew Point Pressure Wind Wind Speed Wind Gust Humidity Rainfall Rate (Hourly)
00:04 31.9 °F /  -0.1 °C 18.4 °F /  -7.6 °C 29.92 in /  1013.1 hPa SW 0.5 mph /  0.8 km/h 29.0 mph /  46.7 km/h 57 % 0.00 in /  0 mm
00:09 31.8 °F /  -0.1 °C 18.3 °F /  -7.6 °C 29.93 in /  1013.4 hPa SW 2.6 mph /  4.2 km/h 29.0 mph /  46.7 km/h 57 % 0.00 in /  0 mm
00:15 31.8 °F /  -0.1 °C 18.3 °F /  -7.6 °C 29.93 in /  1013.4 hPa SW 0.3 mph /  0.5 km/h 29.0 mph /  46.7 km/h 57 % 0.00 in /  0 mm
00:20 31.9 °F /  -0.1 °C 18.8 °F /  -7.3 °C 29.93 in /  1013.4 hPa SW 0.8 mph /  1.3 km/h 29.0 mph /  46.7 km/h 58 % 0.00 in /  0 mm
00:25 31.9 °F /  -0.1 °C 18.8 °F /  -7.3 °C 29.93 in /  1013.4 hPa WNW 1.3 mph /  2.1 km/h 29.0 mph /  46.7 km/h 58 % 0.00 in /  0 mm
00:30 31.9 °F /  -0.1 °C 20.0 °F /  -6.7 °C 29.93 in /  1013.4 hPa SSW 2.5 mph /  4 km/h 29.0 mph /  46.7 km/h 61 % 0.00 in /  0 mm
00:35 31.8 °F /  -0.1 °C 21.0 °F /  -6.1 °C 29.94 in /  1013.8 hPa WSW 4.8 mph /  7.7 km/h 29.0 mph /  46.7 km/h 64 % 0.00 in /  0 mm
00:40 31.7 °F /  -0.2 °C 21.6 °F /  -5.8 °C 29.94 in /  1013.8 hPa SW 4.0 mph /  6.4 km/h 29.0 mph /  46.7 km/h 66 % 0.00 in /  0 mm
00:45 31.5 °F /  -0.3 °C 22.1 °F /  -5.5 °C 29.94 in /  1013.8 hPa WSW 3.8 mph /  6.1 km/h 29.0 mph /  46.7 km/h 68 % 0.00 in /  0 mm
00:50 31.3 °F /  -0.4 °C 22.6 °F /  -5.2 °C 29.94 in /  1013.8 hPa SW 3.4 mph /  5.5 km/h 29.0 mph /  46.7 km/h 70 % 0.00 in /  0 mm
00:55 31.2 °F /  -0.4 °C 22.9 °F /  -5.1 °C 29.94 in /  1013.8 hPa SSW 1.3 mph /  2.1 km/h 29.0 mph /  46.7 km/h 71 % 0.00 in /  0 mm
01:00 31.1 °F /  -0.5 °C 23.1 °F /  -4.9 °C 29.94 in /  1013.8 hPa WSW 0.8 mph /  1.3 km/h 29.0 mph /  46.7 km/h 72 % 0.00 in /  0 mm
01:05 31.0 °F /  -0.6 °C 23.7 °F /  -4.6 °C 29.95 in /  1014.1 hPa SSW 2.3 mph /  3.7 km/h 29.0 mph /  46.7 km/h 74 % 0.00 in /  0 mm
01:10 30.8 °F /  -0.7 °C 23.8 °F /  -4.6 °C 29.95 in /  1014.1 hPa SW 2.3 mph /  3.7 km/h 29.0 mph /  46.7 km/h 75 % 0.00 in /  0 mm
01:15 30.7 °F /  -0.7 °C 24.3 °F /  -4.3 °C 29.94 in /  1013.8 hPa SW 1.6 mph /  2.6 km/h 29.0 mph /  46.7 km/h 77 % 0.00 in /  0 mm
01:20 30.6 °F /  -0.8 °C 24.6 °F /  -4.1 °C 29.94 in /  1013.8 hPa WSW 3.8 mph /  6.1 km/h 29.0 mph /  46.7 km/h 78 % 0.00 in /  0 mm
01:25 30.4 °F /  -0.9 °C 24.7 °F /  -4.1 °C 29.94 in /  1013.8 hPa SW 2.9 mph /  4.7 km/h 29.0 mph /  46.7 km/h 79 % 0.00 in /  0 mm
01:30 30.2 °F /  -1 °C 24.8 °F /  -4 °C 29.94 in /  1013.8 hPa SW 1.6 mph /  2.6 km/h 29.0 mph /  46.7 km/h 80 % 0.00 in /  0 mm
01:35 30.1 °F /  -1.1 °C 25.0 °F /  -3.9 °C 29.94 in /  1013.8 hPa WSW 1.2 mph /  1.9 km/h 29.0 mph /  46.7 km/h 81 % 0.00 in /  0 mm
01:41 29.9 °F /  -1.2 °C 25.1 °F /  -3.8 °C 29.94 in /  1013.8 hPa WSW 1.8 mph /  2.9 km/h 29.0 mph /  46.7 km/h 82 % 0.00 in /  0 mm
01:46 29.8 °F /  -1.2 °C 25.0 °F /  -3.9 °C 29.94 in /  1013.8 hPa SW 0.5 mph /  0.8 km/h 29.0 mph /  46.7 km/h 82 % 0.00 in /  0 mm
01:51 29.7 °F /  -1.3 °C 25.2 °F /  -3.8 °C 29.94 in /  1013.8 hPa SW 2.2 mph /  3.5 km/h 29.0 mph /  46.7 km/h 83 % 0.00 in /  0 mm
01:56 29.6 °F /  -1.3 °C 25.4 °F /  -3.7 °C 29.94 in /  1013.8 hPa SW 1.0 mph /  1.6 km/h 29.0 mph /  46.7 km/h 84 % 0.00 in /  0 mm
02:01 29.5 °F /  -1.4 °C 25.3 °F /  -3.7 °C 29.94 in /  1013.8 hPa West 1.8 mph /  2.9 km/h 29.0 mph /  46.7 km/h 84 % 0.00 in /  0 mm
02:06 29.5 °F /  -1.4 °C 25.5 °F /  -3.6 °C 29.94 in /  1013.8 hPa Calm   29.0 mph /  46.7 km/h 85 % 0.00 in /  0 mm
02:11 29.4 °F /  -1.4 °C 25.4 °F /  -3.7 °C 29.94 in /  1013.8 hPa Calm   29.0 mph /  46.7 km/h 85 % 0.00 in /  0 mm
02:16 29.4 °F /  -1.4 °C 25.4 °F /  -3.7 °C 29.94 in /  1013.8 hPa Calm   29.0 mph /  46.7 km/h 85 % 0.00 in /  0 mm
02:21 29.4 °F /  -1.4 °C 25.7 °F /  -3.5 °C 29.94 in /  1013.8 hPa West 0.8 mph /  1.3 km/h 29.0 mph /  46.7 km/h 86 % 0.00 in /  0 mm
02:26 29.4 °F /  -1.4 °C 26.0 °F /  -3.3 °C 29.94 in /  1013.8 hPa WNW 0.2 mph /  0.3 km/h 29.0 mph /  46.7 km/h 87 % 0.00 in /  0 mm
02:31 29.4 °F /  -1.4 °C 26.0 °F /  -3.3 °C 29.94 in /  1013.8 hPa WNW 0.8 mph /  1.3 km/h 29.0 mph /  46.7 km/h 87 % 0.00 in /  0 mm
02:36 29.4 °F /  -1.4 °C 26.3 °F /  -3.2 °C 29.94 in /  1013.8 hPa West 0.5 mph /  0.8 km/h 29.0 mph /  46.7 km/h 88 % 0.00 in /  0 mm
02:41 29.4 °F /  -1.4 °C 26.3 °F /  -3.2 °C 29.94 in /  1013.8 hPa NW 2.4 mph /  3.9 km/h 29.0 mph /  46.7 km/h 88 % 0.00 in /  0 mm
02:43 29.3 °F /  -1.5 °C 26.2 °F /  -3.2 °C 29.94 in /  1013.8 hPa NW 0.7 mph /  1.1 km/h 29.0 mph /  46.7 km/h 88 % 0.00 in /  0 mm
02:48 29.3 °F /  -1.5 °C 26.2 °F /  -3.2 °C 29.94 in /  1013.8 hPa WNW 2.2 mph /  3.5 km/h 29.0 mph /  46.7 km/h 88 % 0.00 in /  0 mm
02:53 29.2 °F /  -1.6 °C 26.4 °F /  -3.1 °C 29.94 in /  1013.8 hPa West 2.5 mph /  4 km/h 29.0 mph /  46.7 km/h 89 % 0.00 in /  0 mm
02:58 29.2 °F /  -1.6 °C 26.4 °F /  -3.1 °C 29.94 in /  1013.8 hPa WNW 2.0 mph /  3.2 km/h 29.0 mph /  46.7 km/h 89 % 0.00 in /  0 mm
03:03 29.2 °F /  -1.6 °C 26.4 °F /  -3.1 °C 29.93 in /  1013.4 hPa NNW 1.8 mph /  2.9 km/h 29.0 mph /  46.7 km/h 89 % 0.00 in /  0 mm
03:08 29.1 °F /  -1.6 °C 26.3 °F /  -3.2 °C 29.93 in /  1013.4 hPa NW 0.1 mph /  0.2 km/h 29.0 mph /  46.7 km/h 89 % 0.00 in /  0 mm
03:13 29.1 °F /  -1.6 °C 26.5 °F /  -3.1 °C 29.92 in /  1013.1 hPa Calm   29.0 mph /  46.7 km/h 90 % 0.01 in /  0.25 mm
03:18 29.0 °F /  -1.7 °C 26.4 °F /  -3.1 °C 29.92 in /  1013.1 hPa NW 0.2 mph /  0.3 km/h 29.0 mph /  46.7 km/h 90 % 0.01 in /  0.25 mm
03:23 29.0 °F /  -1.7 °C 26.4 °F /  -3.1 °C 29.91 in /  1012.8 hPa Calm   29.0 mph /  46.7 km/h 90 % 0.01 in /  0.25 mm
03:28 29.0 °F /  -1.7 °C 26.4 °F /  -3.1 °C 29.91 in /  1012.8 hPa Calm   29.0 mph /  46.7 km/h 90 % 0.01 in /  0.25 mm
03:33 28.9 °F /  -1.7 °C 26.3 °F /  -3.2 °C 29.91 in /  1012.8 hPa Calm   29.0 mph /  46.7 km/h 90 % 0.01 in /  0.25 mm
03:39 28.9 °F /  -1.7 °C 26.3 °F /  -3.2 °C 29.91 in /  1012.8 hPa Calm   29.0 mph /  46.7 km/h 90 % 0.01 in /  0.25 mm
03:44 28.8 °F /  -1.8 °C 26.2 °F /  -3.2 °C 29.91 in /  1012.8 hPa Calm   29.0 mph /  46.7 km/h 90 % 0.01 in /  0.25 mm
03:49 28.8 °F /  -1.8 °C 26.2 °F /  -3.2 °C 29.91 in /  1012.8 hPa Calm   29.0 mph /  46.7 km/h 90 % 0.01 in /  0.25 mm
03:54 28.8 °F /  -1.8 °C 26.2 °F /  -3.2 °C 29.91 in /  1012.8 hPa NNW 0.8 mph /  1.3 km/h 29.0 mph /  46.7 km/h 90 % 0.01 in /  0.25 mm
03:59 28.7 °F /  -1.8 °C 26.1 °F /  -3.3 °C 29.91 in /  1012.8 hPa NNE 2.1 mph /  3.4 km/h 29.0 mph /  46.7 km/h 90 % 0.01 in /  0.25 mm
04:04 28.7 °F /  -1.8 °C 26.1 °F /  -3.3 °C 29.90 in /  1012.4 hPa NNE 1.2 mph /  1.9 km/h 29.0 mph /  46.7 km/h 90 % 0.01 in /  0.25 mm
04:09 28.7 °F /  -1.8 °C 26.1 °F /  -3.3 °C 29.90 in /  1012.4 hPa Calm   3.0 mph /  4.8 km/h 90 % 0.00 in /  0 mm
04:14 28.7 °F /  -1.8 °C 26.1 °F /  -3.3 °C 29.90 in /  1012.4 hPa North 0.6 mph /  1 km/h 29.0 mph /  46.7 km/h 90 % 0.00 in /  0 mm
04:19 28.7 °F /  -1.8 °C 26.1 °F /  -3.3 °C 29.90 in /  1012.4 hPa North 1.0 mph /  1.6 km/h 3.0 mph /  4.8 km/h 90 % 0.00 in /  0 mm
04:24 28.6 °F /  -1.9 °C 26.1 °F /  -3.3 °C 29.90 in /  1012.4 hPa NNE 2.0 mph /  3.2 km/h 5.0 mph /  8 km/h 90 % 0.00 in /  0 mm
04:29 28.6 °F /  -1.9 °C 26.0 °F /  -3.3 °C 29.90 in /  1012.4 hPa NNE 2.0 mph /  3.2 km/h 4.0 mph /  6.4 km/h 90 % 0.00 in /  0 mm
04:34 28.6 °F /  -1.9 °C 25.8 °F /  -3.4 °C 29.91 in /  1012.8 hPa North 2.0 mph /  3.2 km/h 5.0 mph /  8 km/h 89 % 0.00 in /  0 mm
04:39 28.6 °F /  -1.9 °C 25.8 °F /  -3.4 °C 29.91 in /  1012.8 hPa North 1.0 mph /  1.6 km/h 5.0 mph /  8 km/h 89 % 0.00 in /  0 mm
04:44 28.6 °F /  -1.9 °C 25.8 °F /  -3.4 °C 29.90 in /  1012.4 hPa North 2.0 mph /  3.2 km/h 6.0 mph /  9.7 km/h 89 % 0.00 in /  0 mm
04:49 28.6 °F /  -1.9 °C 25.8 °F /  -3.4 °C 29.91 in /  1012.8 hPa North 1.0 mph /  1.6 km/h 3.0 mph /  4.8 km/h 89 % 0.00 in /  0 mm
04:54 28.5 °F /  -1.9 °C 25.7 °F /  -3.5 °C 29.92 in /  1013.1 hPa Calm   29.0 mph /  46.7 km/h 89 % 0.00 in /  0 mm
04:59 28.5 °F /  -1.9 °C 25.7 °F /  -3.5 °C 29.92 in /  1013.1 hPa North 1.0 mph /  1.6 km/h 29.0 mph /  46.7 km/h 89 % 0.00 in /  0 mm
05:04 28.5 °F /  -1.9 °C 25.7 °F /  -3.5 °C 29.92 in /  1013.1 hPa NNW 1.4 mph /  2.3 km/h 29.0 mph /  46.7 km/h 89 % 0.00 in /  0 mm
05:09 28.5 °F /  -1.9 °C 25.7 °F /  -3.5 °C 29.92 in /  1013.1 hPa NNW 0.5 mph /  0.8 km/h 29.0 mph /  46.7 km/h 89 % 0.00 in /  0 mm
05:14 28.6 °F /  -1.9 °C 25.8 °F /  -3.4 °C 29.92 in /  1013.1 hPa Calm   29.0 mph /  46.7 km/h 89 % 0.00 in /  0 mm
05:19 28.6 °F /  -1.9 °C 25.8 °F /  -3.4 °C 29.92 in /  1013.1 hPa Calm   29.0 mph /  46.7 km/h 89 % 0.00 in /  0 mm
05:24 28.6 °F /  -1.9 °C 25.8 °F /  -3.4 °C 29.92 in /  1013.1 hPa NNW 0.8 mph /  1.3 km/h 29.0 mph /  46.7 km/h 89 % 0.00 in /  0 mm
05:29 28.6 °F /  -1.9 °C 25.8 °F /  -3.4 °C 29.92 in /  1013.1 hPa NNE 2.9 mph /  4.7 km/h 29.0 mph /  46.7 km/h 89 % 0.00 in /  0 mm
05:35 28.6 °F /  -1.9 °C 25.8 °F /  -3.4 °C 29.91 in /  1012.8 hPa NNE 3.8 mph /  6.1 km/h 29.0 mph /  46.7 km/h 89 % 0.00 in /  0 mm
05:40 28.5 °F /  -1.9 °C 25.4 °F /  -3.7 °C 29.91 in /  1012.8 hPa North 1.6 mph /  2.6 km/h 29.0 mph /  46.7 km/h 88 % 0.00 in /  0 mm
05:45 28.5 °F /  -1.9 °C 25.1 °F /  -3.8 °C 29.91 in /  1012.8 hPa NW 1.5 mph /  2.4 km/h 29.0 mph /  46.7 km/h 87 % 0.00 in /  0 mm
05:50 28.5 °F /  -1.9 °C 25.1 °F /  -3.8 °C 29.92 in /  1013.1 hPa NNE 2.6 mph /  4.2 km/h 29.0 mph /  46.7 km/h 87 % 0.00 in /  0 mm
05:55 28.5 °F /  -1.9 °C 25.1 °F /  -3.8 °C 29.93 in /  1013.4 hPa NNE 1.6 mph /  2.6 km/h 29.0 mph /  46.7 km/h 87 % 0.00 in /  0 mm
06:00 28.5 °F /  -1.9 °C 25.1 °F /  -3.8 °C 29.94 in /  1013.8 hPa NNW 0.4 mph /  0.6 km/h 29.0 mph /  46.7 km/h 87 % 0.00 in /  0 mm
06:05 28.5 °F /  -1.9 °C 25.1 °F /  -3.8 °C 29.95 in /  1014.1 hPa North 1.0 mph /  1.6 km/h 29.0 mph /  46.7 km/h 87 % 0.00 in /  0 mm
06:10 28.5 °F /  -1.9 °C 25.1 °F /  -3.8 °C 29.95 in /  1014.1 hPa NNE 4.5 mph /  7.2 km/h 29.0 mph /  46.7 km/h 87 % 0.00 in /  0 mm
06:15 28.5 °F /  -1.9 °C 24.8 °F /  -4 °C 29.95 in /  1014.1 hPa NNE 2.6 mph /  4.2 km/h 29.0 mph /  46.7 km/h 86 % 0.00 in /  0 mm
06:20 28.6 °F /  -1.9 °C 24.9 °F /  -3.9 °C 29.96 in /  1014.4 hPa NNE 3.9 mph /  6.3 km/h 29.0 mph /  46.7 km/h 86 % 0.00 in /  0 mm
06:25 28.6 °F /  -1.9 °C 24.9 °F /  -3.9 °C 29.96 in /  1014.4 hPa NNE 0.7 mph /  1.1 km/h 29.0 mph /  46.7 km/h 86 % 0.00 in /  0 mm
06:30 28.6 °F /  -1.9 °C 24.9 °F /  -3.9 °C 29.95 in /  1014.1 hPa North 4.4 mph /  7.1 km/h 29.0 mph /  46.7 km/h 86 % 0.00 in /  0 mm
06:35 28.6 °F /  -1.9 °C 24.9 °F /  -3.9 °C 29.97 in /  1014.8 hPa North 4.3 mph /  6.9 km/h 29.0 mph /  46.7 km/h 86 % 0.00 in /  0 mm
06:41 28.6 °F /  -1.9 °C 24.9 °F /  -3.9 °C 29.97 in /  1014.8 hPa NNW 1.9 mph /  3.1 km/h 29.0 mph /  46.7 km/h 86 % 0.00 in /  0 mm
06:46 28.7 °F /  -1.8 °C 24.8 °F /  -4 °C 29.97 in /  1014.8 hPa NNW 3.6 mph /  5.8 km/h 29.0 mph /  46.7 km/h 85 % 0.00 in /  0 mm
06:51 28.6 °F /  -1.9 °C 24.4 °F /  -4.2 °C 29.96 in /  1014.4 hPa North 2.1 mph /  3.4 km/h 29.0 mph /  46.7 km/h 84 % 0.00 in /  0 mm
06:56 28.6 °F /  -1.9 °C 24.4 °F /  -4.2 °C 29.96 in /  1014.4 hPa NE 4.8 mph /  7.7 km/h 29.0 mph /  46.7 km/h 84 % 0.00 in /  0 mm
07:01 28.6 °F /  -1.9 °C 24.4 °F /  -4.2 °C 29.97 in /  1014.8 hPa North 4.0 mph /  6.4 km/h 29.0 mph /  46.7 km/h 84 % 0.00 in /  0 mm
07:06 28.6 °F /  -1.9 °C 24.4 °F /  -4.2 °C 29.98 in /  1015.1 hPa NNW 1.4 mph /  2.3 km/h 29.0 mph /  46.7 km/h 84 % 0.00 in /  0 mm
07:11 28.6 °F /  -1.9 °C 24.4 °F /  -4.2 °C 29.99 in /  1015.5 hPa Calm   29.0 mph /  46.7 km/h 84 % 0.00 in /  0 mm
07:16 28.6 °F /  -1.9 °C 24.4 °F /  -4.2 °C 29.99 in /  1015.5 hPa NNW 2.4 mph /  3.9 km/h 29.0 mph /  46.7 km/h 84 % 0.00 in /  0 mm
07:21 28.6 °F /  -1.9 °C 24.7 °F /  -4.1 °C 29.98 in /  1015.1 hPa NW 2.6 mph /  4.2 km/h 29.0 mph /  46.7 km/h 85 % 0.00 in /  0 mm
07:26 28.6 °F /  -1.9 °C 24.7 °F /  -4.1 °C 29.98 in /  1015.1 hPa NW 0.9 mph /  1.4 km/h 29.0 mph /  46.7 km/h 85 % 0.00 in /  0 mm
07:31 28.6 °F /  -1.9 °C 24.7 °F /  -4.1 °C 29.98 in /  1015.1 hPa NW 1.1 mph /  1.8 km/h 29.0 mph /  46.7 km/h 85 % 0.00 in /  0 mm
07:36 28.5 °F /  -1.9 °C 24.8 °F /  -4 °C 29.97 in /  1014.8 hPa North 3.8 mph /  6.1 km/h 29.0 mph /  46.7 km/h 86 % 0.00 in /  0 mm
07:41 28.5 °F /  -1.9 °C 24.8 °F /  -4 °C 29.97 in /  1014.8 hPa NNE 0.2 mph /  0.3 km/h 29.0 mph /  46.7 km/h 86 % 0.00 in /  0 mm
07:46 28.4 °F /  -2 °C 24.7 °F /  -4.1 °C 29.98 in /  1015.1 hPa NNW 0.9 mph /  1.4 km/h 29.0 mph /  46.7 km/h 86 % 0.00 in /  0 mm
07:51 28.4 °F /  -2 °C 24.7 °F /  -4.1 °C 29.99 in /  1015.5 hPa NW 0.7 mph /  1.1 km/h 29.0 mph /  46.7 km/h 86 % 0.00 in /  0 mm
07:56 28.4 °F /  -2 °C 25.0 °F /  -3.9 °C 29.99 in /  1015.5 hPa NW 2.2 mph /  3.5 km/h 29.0 mph /  46.7 km/h 87 % 0.00 in /  0 mm
08:02 28.4 °F /  -2 °C 25.0 °F /  -3.9 °C 29.99 in /  1015.5 hPa NNW 2.1 mph /  3.4 km/h 29.0 mph /  46.7 km/h 87 % 0.00 in /  0 mm
08:07 28.3 °F /  -2.1 °C 24.9 °F /  -3.9 °C 29.99 in /  1015.5 hPa NW 3.2 mph /  5.1 km/h 29.0 mph /  46.7 km/h 87 % 0.00 in /  0 mm
08:12 28.3 °F /  -2.1 °C 25.2 °F /  -3.8 °C 29.98 in /  1015.1 hPa WNW 2.0 mph /  3.2 km/h 29.0 mph /  46.7 km/h 88 % 0.00 in /  0 mm
08:17 28.3 °F /  -2.1 °C 25.2 °F /  -3.8 °C 29.99 in /  1015.5 hPa NW 0.3 mph /  0.5 km/h 29.0 mph /  46.7 km/h 88 % 0.00 in /  0 mm
08:22 28.3 °F /  -2.1 °C 25.2 °F /  -3.8 °C 29.99 in /  1015.5 hPa NNW 1.5 mph /  2.4 km/h 29.0 mph /  46.7 km/h 88 % 0.00 in /  0 mm
08:27 28.4 °F /  -2 °C 25.3 °F /  -3.7 °C 29.99 in /  1015.5 hPa West 0.8 mph /  1.3 km/h 29.0 mph /  46.7 km/h 88 % 0.00 in /  0 mm
08:32 28.4 °F /  -2 °C 25.3 °F /  -3.7 °C 30.00 in /  1015.8 hPa NNW 1.1 mph /  1.8 km/h 29.0 mph /  46.7 km/h 88 % 0.00 in /  0 mm
08:37 28.4 °F /  -2 °C 25.3 °F /  -3.7 °C 30.00 in /  1015.8 hPa NW 1.8 mph /  2.9 km/h 29.0 mph /  46.7 km/h 88 % 0.00 in /  0 mm
08:42 28.5 °F /  -1.9 °C 25.4 °F /  -3.7 °C 30.01 in /  1016.1 hPa WNW 1.9 mph /  3.1 km/h 29.0 mph /  46.7 km/h 88 % 0.00 in /  0 mm
08:47 28.6 °F /  -1.9 °C 25.5 °F /  -3.6 °C 30.01 in /  1016.1 hPa NW 1.5 mph /  2.4 km/h 29.0 mph /  46.7 km/h 88 % 0.00 in /  0 mm
08:52 28.7 °F /  -1.8 °C 25.6 °F /  -3.6 °C 30.00 in /  1015.8 hPa North 0.5 mph /  0.8 km/h 29.0 mph /  46.7 km/h 88 % 0.00 in /  0 mm
08:57 28.9 °F /  -1.7 °C 25.8 °F /  -3.4 °C 30.01 in /  1016.1 hPa NNW 1.5 mph /  2.4 km/h 29.0 mph /  46.7 km/h 88 % 0.00 in /  0 mm
09:02 29.0 °F /  -1.7 °C 25.9 °F /  -3.4 °C 30.01 in /  1016.1 hPa NNW 2.7 mph /  4.3 km/h 29.0 mph /  46.7 km/h 88 % 0.00 in /  0 mm
09:07 29.2 °F /  -1.6 °C 26.1 °F /  -3.3 °C 30.01 in /  1016.1 hPa NW 0.9 mph /  1.4 km/h 29.0 mph /  46.7 km/h 88 % 0.00 in /  0 mm
09:12 29.3 °F /  -1.5 °C 26.2 °F /  -3.2 °C 30.00 in /  1015.8 hPa North 2.0 mph /  3.2 km/h 29.0 mph /  46.7 km/h 88 % 0.00 in /  0 mm
09:17 29.4 °F /  -1.4 °C 26.0 °F /  -3.3 °C 30.01 in /  1016.1 hPa NW 3.7 mph /  6 km/h 29.0 mph /  46.7 km/h 87 % 0.00 in /  0 mm
09:23 29.4 °F /  -1.4 °C 25.7 °F /  -3.5 °C 30.02 in /  1016.5 hPa NNW 3.3 mph /  5.3 km/h 29.0 mph /  46.7 km/h 86 % 0.00 in /  0 mm
09:28 29.4 °F /  -1.4 °C 25.4 °F /  -3.7 °C 30.01 in /  1016.1 hPa NNE 3.0 mph /  4.8 km/h 29.0 mph /  46.7 km/h 85 % 0.00 in /  0 mm
09:33 29.4 °F /  -1.4 °C 25.7 °F /  -3.5 °C 30.01 in /  1016.1 hPa North 1.5 mph /  2.4 km/h 29.0 mph /  46.7 km/h 86 % 0.00 in /  0 mm
09:38 29.6 °F /  -1.3 °C 25.6 °F /  -3.6 °C 30.02 in /  1016.5 hPa North 2.2 mph /  3.5 km/h 29.0 mph /  46.7 km/h 85 % 0.00 in /  0 mm
09:43 29.8 °F /  -1.2 °C 25.8 °F /  -3.4 °C 30.02 in /  1016.5 hPa NW 1.2 mph /  1.9 km/h 29.0 mph /  46.7 km/h 85 % 0.00 in /  0 mm
09:48 29.9 °F /  -1.2 °C 25.9 °F /  -3.4 °C 30.02 in /  1016.5 hPa NNE 3.6 mph /  5.8 km/h 29.0 mph /  46.7 km/h 85 % 0.00 in /  0 mm
09:53 30.0 °F /  -1.1 °C 26.0 °F /  -3.3 °C 30.02 in /  1016.5 hPa NNW 2.7 mph /  4.3 km/h 29.0 mph /  46.7 km/h 85 % 0.00 in /  0 mm
09:58 30.1 °F /  -1.1 °C 25.8 °F /  -3.4 °C 30.02 in /  1016.5 hPa NNW 2.4 mph /  3.9 km/h 29.0 mph /  46.7 km/h 84 % 0.00 in /  0 mm
10:03 30.2 °F /  -1 °C 25.9 °F /  -3.4 °C 30.03 in /  1016.8 hPa NNE 2.0 mph /  3.2 km/h 29.0 mph /  46.7 km/h 84 % 0.00 in /  0 mm
10:08 30.4 °F /  -0.9 °C 25.9 °F /  -3.4 °C 30.03 in /  1016.8 hPa NNW 1.9 mph /  3.1 km/h 29.0 mph /  46.7 km/h 83 % 0.00 in /  0 mm
10:13 30.5 °F /  -0.8 °C 26.0 °F /  -3.3 °C 30.02 in /  1016.5 hPa North 4.8 mph /  7.7 km/h 29.0 mph /  46.7 km/h 83 % 0.00 in /  0 mm
10:18 30.6 °F /  -0.8 °C 25.8 °F /  -3.4 °C 30.03 in /  1016.8 hPa North 2.9 mph /  4.7 km/h 29.0 mph /  46.7 km/h 82 % 0.00 in /  0 mm
10:23 30.7 °F /  -0.7 °C 25.6 °F /  -3.6 °C 30.03 in /  1016.8 hPa NNW 4.5 mph /  7.2 km/h 29.0 mph /  46.7 km/h 81 % 0.00 in /  0 mm
10:28 30.9 °F /  -0.6 °C 26.1 °F /  -3.3 °C 30.02 in /  1016.5 hPa North 2.1 mph /  3.4 km/h 29.0 mph /  46.7 km/h 82 % 0.00 in /  0 mm
10:33 31.2 °F /  -0.4 °C 26.3 °F /  -3.2 °C 30.03 in /  1016.8 hPa NNE 1.4 mph /  2.3 km/h 29.0 mph /  46.7 km/h 82 % 0.00 in /  0 mm
10:39 31.4 °F /  -0.3 °C 26.2 °F /  -3.2 °C 30.03 in /  1016.8 hPa North 3.6 mph /  5.8 km/h 29.0 mph /  46.7 km/h 81 % 0.00 in /  0 mm
10:44 31.6 °F /  -0.2 °C 26.1 °F /  -3.3 °C 30.03 in /  1016.8 hPa North 3.7 mph /  6 km/h 29.0 mph /  46.7 km/h 80 % 0.00 in /  0 mm
10:49 31.5 °F /  -0.3 °C 25.4 °F /  -3.7 °C 30.03 in /  1016.8 hPa North 3.4 mph /  5.5 km/h 29.0 mph /  46.7 km/h 78 % 0.00 in /  0 mm
10:54 31.6 °F /  -0.2 °C 25.8 °F /  -3.4 °C 30.02 in /  1016.5 hPa North 2.5 mph /  4 km/h 29.0 mph /  46.7 km/h 79 % 0.00 in /  0 mm
10:59 31.6 °F /  -0.2 °C 26.1 °F /  -3.3 °C 30.02 in /  1016.5 hPa North 3.3 mph /  5.3 km/h 29.0 mph /  46.7 km/h 80 % 0.00 in /  0 mm
11:04 31.7 °F /  -0.2 °C 26.3 °F /  -3.2 °C 30.02 in /  1016.5 hPa North 5.0 mph /  8 km/h 8.0 mph /  12.9 km/h 80 % 0.00 in /  0 mm
11:09 31.9 °F /  -0.1 °C 26.1 °F /  -3.3 °C 30.02 in /  1016.5 hPa North 6.0 mph /  9.7 km/h 10.0 mph /  16.1 km/h 79 % 0.00 in /  0 mm
11:14 32.0 °F /  0 °C 25.9 °F /  -3.4 °C 30.03 in /  1016.8 hPa North 6.0 mph /  9.7 km/h 9.0 mph /  14.5 km/h 78 % 0.00 in /  0 mm
11:19 32.2 °F /  0.1 °C 26.4 °F /  -3.1 °C 30.03 in /  1016.8 hPa North 6.0 mph /  9.7 km/h 9.0 mph /  14.5 km/h 79 % 0.00 in /  0 mm
11:24 32.2 °F /  0.1 °C 25.8 °F /  -3.4 °C 30.02 in /  1016.5 hPa North 3.0 mph /  4.8 km/h 8.0 mph /  12.9 km/h 77 % 0.00 in /  0 mm
11:29 32.1 °F /  0.1 °C 25.7 °F /  -3.5 °C 30.01 in /  1016.1 hPa North 5.0 mph /  8 km/h 6.0 mph /  9.7 km/h 77 % 0.00 in /  0 mm
11:34 32.2 °F /  0.1 °C 26.1 °F /  -3.3 °C 30.01 in /  1016.1 hPa North 3.0 mph /  4.8 km/h 6.0 mph /  9.7 km/h 78 % 0.00 in /  0 mm
11:39 32.3 °F /  0.2 °C 25.9 °F /  -3.4 °C 30.01 in /  1016.1 hPa North 3.0 mph /  4.8 km/h 8.0 mph /  12.9 km/h 77 % 0.00 in /  0 mm
11:44 32.2 °F /  0.1 °C 25.5 °F /  -3.6 °C 30.01 in /  1016.1 hPa North 1.0 mph /  1.6 km/h 6.0 mph /  9.7 km/h 76 % 0.00 in /  0 mm
11:49 32.1 °F /  0.1 °C 25.4 °F /  -3.7 °C 30.01 in /  1016.1 hPa North 2.0 mph /  3.2 km/h 7.0 mph /  11.3 km/h 76 % 0.00 in /  0 mm
11:54 32.1 °F /  0.1 °C 25.7 °F /  -3.5 °C 30.01 in /  1016.1 hPa North 1.0 mph /  1.6 km/h 5.0 mph /  8 km/h 77 % 0.00 in /  0 mm
11:59 32.2 °F /  0.1 °C 26.1 °F /  -3.3 °C 30.01 in /  1016.1 hPa North 2.4 mph /  3.9 km/h 29.0 mph /  46.7 km/h 78 % 0.00 in /  0 mm
12:04 32.4 °F /  0.2 °C 25.7 °F /  -3.5 °C 30.00 in /  1015.8 hPa NNE 3.0 mph /  4.8 km/h 6.0 mph /  9.7 km/h 76 % 0.00 in /  0 mm
12:09 32.6 °F /  0.3 °C 25.9 °F /  -3.4 °C 30.01 in /  1016.1 hPa North 2.0 mph /  3.2 km/h 6.0 mph /  9.7 km/h 76 % 0.00 in /  0 mm
12:14 33.0 °F /  0.6 °C 26.2 °F /  -3.2 °C 30.00 in /  1015.8 hPa North 3.0 mph /  4.8 km/h 8.0 mph /  12.9 km/h 76 % 0.00 in /  0 mm
12:19 33.2 °F /  0.7 °C 26.1 °F /  -3.3 °C 30.00 in /  1015.8 hPa NNE 3.0 mph /  4.8 km/h 7.0 mph /  11.3 km/h 75 % 0.00 in /  0 mm
12:24 33.2 °F /  0.7 °C 25.8 °F /  -3.4 °C 30.00 in /  1015.8 hPa North 2.0 mph /  3.2 km/h 7.0 mph /  11.3 km/h 74 % 0.00 in /  0 mm
12:29 33.2 °F /  0.7 °C 26.1 °F /  -3.3 °C 30.00 in /  1015.8 hPa NE 2.6 mph /  4.2 km/h 29.0 mph /  46.7 km/h 75 % 0.00 in /  0 mm
12:34 33.2 °F /  0.7 °C 25.5 °F /  -3.6 °C 30.00 in /  1015.8 hPa NNE 2.5 mph /  4 km/h 29.0 mph /  46.7 km/h 73 % 0.00 in /  0 mm
12:39 33.0 °F /  0.6 °C 24.3 °F /  -4.3 °C 30.00 in /  1015.8 hPa NNE 0.9 mph /  1.4 km/h 29.0 mph /  46.7 km/h 70 % 0.00 in /  0 mm
12:44 32.8 °F /  0.4 °C 24.4 °F /  -4.2 °C 30.00 in /  1015.8 hPa North 0.5 mph /  0.8 km/h 29.0 mph /  46.7 km/h 71 % 0.00 in /  0 mm
12:49 32.8 °F /  0.4 °C 24.4 °F /  -4.2 °C 30.01 in /  1016.1 hPa NW 1.2 mph /  1.9 km/h 29.0 mph /  46.7 km/h 71 % 0.00 in /  0 mm
12:54 33.0 °F /  0.6 °C 24.6 °F /  -4.1 °C 30.01 in /  1016.1 hPa NNW 3.0 mph /  4.8 km/h 29.0 mph /  46.7 km/h 71 % 0.00 in /  0 mm
12:59 33.2 °F /  0.7 °C 24.8 °F /  -4 °C 30.01 in /  1016.1 hPa North 4.3 mph /  6.9 km/h 29.0 mph /  46.7 km/h 71 % 0.00 in /  0 mm
13:04 33.4 °F /  0.8 °C 25.3 °F /  -3.7 °C 30.01 in /  1016.1 hPa NW 3.4 mph /  5.5 km/h 29.0 mph /  46.7 km/h 72 % 0.00 in /  0 mm
13:10 33.4 °F /  0.8 °C 25.0 °F /  -3.9 °C 30.02 in /  1016.5 hPa North 1.9 mph /  3.1 km/h 29.0 mph /  46.7 km/h 71 % 0.00 in /  0 mm
13:15 33.4 °F /  0.8 °C 24.3 °F /  -4.3 °C 30.01 in /  1016.1 hPa North 2.1 mph /  3.4 km/h 29.0 mph /  46.7 km/h 69 % 0.00 in /  0 mm
13:20 33.5 °F /  0.8 °C 25.1 °F /  -3.8 °C 30.01 in /  1016.1 hPa NNW 1.1 mph /  1.8 km/h 29.0 mph /  46.7 km/h 71 % 0.00 in /  0 mm
13:25 33.5 °F /  0.8 °C 24.8 °F /  -4 °C 30.01 in /  1016.1 hPa WNW 1.5 mph /  2.4 km/h 29.0 mph /  46.7 km/h 70 % 0.00 in /  0 mm
13:30 33.5 °F /  0.8 °C 24.4 °F /  -4.2 °C 30.01 in /  1016.1 hPa NW 2.8 mph /  4.5 km/h 29.0 mph /  46.7 km/h 69 % 0.00 in /  0 mm
13:35 33.5 °F /  0.8 °C 24.8 °F /  -4 °C 30.02 in /  1016.5 hPa NNW 1.4 mph /  2.3 km/h 29.0 mph /  46.7 km/h 70 % 0.00 in /  0 mm
13:40 33.4 °F /  0.8 °C 24.7 °F /  -4.1 °C 30.01 in /  1016.1 hPa NNE 2.5 mph /  4 km/h 29.0 mph /  46.7 km/h 70 % 0.00 in /  0 mm
13:45 33.5 °F /  0.8 °C 24.8 °F /  -4 °C 30.01 in /  1016.1 hPa NNW 1.3 mph /  2.1 km/h 29.0 mph /  46.7 km/h 70 % 0.00 in /  0 mm
13:50 33.5 °F /  0.8 °C 23.7 °F /  -4.6 °C 30.01 in /  1016.1 hPa NNW 3.1 mph /  5 km/h 29.0 mph /  46.7 km/h 67 % 0.00 in /  0 mm
13:55 33.6 °F /  0.9 °C 24.5 °F /  -4.2 °C 30.01 in /  1016.1 hPa North 1.9 mph /  3.1 km/h 29.0 mph /  46.7 km/h 69 % 0.00 in /  0 mm
14:01 33.7 °F /  0.9 °C 24.6 °F /  -4.1 °C 30.01 in /  1016.1 hPa NNW 3.2 mph /  5.1 km/h 29.0 mph /  46.7 km/h 69 % 0.00 in /  0 mm
14:06 33.9 °F /  1.1 °C 24.4 °F /  -4.2 °C 30.01 in /  1016.1 hPa NNE 4.4 mph /  7.1 km/h 29.0 mph /  46.7 km/h 68 % 0.00 in /  0 mm
14:11 33.9 °F /  1.1 °C 23.7 °F /  -4.6 °C 30.02 in /  1016.5 hPa WNW 4.8 mph /  7.7 km/h 29.0 mph /  46.7 km/h 66 % 0.00 in /  0 mm
14:16 33.7 °F /  0.9 °C 22.8 °F /  -5.1 °C 30.02 in /  1016.5 hPa NW 0.7 mph /  1.1 km/h 29.0 mph /  46.7 km/h 64 % 0.00 in /  0 mm
14:21 33.6 °F /  0.9 °C 22.7 °F /  -5.2 °C 30.02 in /  1016.5 hPa NNW 2.8 mph /  4.5 km/h 29.0 mph /  46.7 km/h 64 % 0.00 in /  0 mm
14:26 33.5 °F /  0.8 °C 22.6 °F /  -5.2 °C 30.02 in /  1016.5 hPa North 2.9 mph /  4.7 km/h 29.0 mph /  46.7 km/h 64 % 0.00 in /  0 mm
14:31 33.4 °F /  0.8 °C 22.1 °F /  -5.5 °C 30.03 in /  1016.8 hPa NNE 1.7 mph /  2.7 km/h 29.0 mph /  46.7 km/h 63 % 0.00 in /  0 mm
14:36 33.4 °F /  0.8 °C 22.5 °F /  -5.3 °C 30.04 in /  1017.2 hPa NNE 4.0 mph /  6.4 km/h 29.0 mph /  46.7 km/h 64 % 0.00 in /  0 mm
14:41 33.4 °F /  0.8 °C 22.1 °F /  -5.5 °C 30.04 in /  1017.2 hPa NW 2.7 mph /  4.3 km/h 29.0 mph /  46.7 km/h 63 % 0.00 in /  0 mm
14:46 33.4 °F /  0.8 °C 21.8 °F /  -5.7 °C 30.04 in /  1017.2 hPa NW 3.5 mph /  5.6 km/h 29.0 mph /  46.7 km/h 62 % 0.00 in /  0 mm
14:51 33.4 °F /  0.8 °C 22.1 °F /  -5.5 °C 30.05 in /  1017.5 hPa NNE 3.8 mph /  6.1 km/h 29.0 mph /  46.7 km/h 63 % 0.00 in /  0 mm
14:56 33.3 °F /  0.7 °C 21.7 °F /  -5.7 °C 30.04 in /  1017.2 hPa NNW 2.0 mph /  3.2 km/h 29.0 mph /  46.7 km/h 62 % 0.00 in /  0 mm
15:01 33.2 °F /  0.7 °C 21.6 °F /  -5.8 °C 30.04 in /  1017.2 hPa North 5.1 mph /  8.2 km/h 29.0 mph /  46.7 km/h 62 % 0.00 in /  0 mm
15:06 33.1 °F /  0.6 °C 21.5 °F /  -5.8 °C 30.04 in /  1017.2 hPa NW 2.8 mph /  4.5 km/h 29.0 mph /  46.7 km/h 62 % 0.00 in /  0 mm
15:11 33.0 °F /  0.6 °C 21.8 °F /  -5.7 °C 30.04 in /  1017.2 hPa WNW 1.7 mph /  2.7 km/h 29.0 mph /  46.7 km/h 63 % 0.00 in /  0 mm
15:17 33.0 °F /  0.6 °C 21.0 °F /  -6.1 °C 30.05 in /  1017.5 hPa NNW 2.9 mph /  4.7 km/h 29.0 mph /  46.7 km/h 61 % 0.00 in /  0 mm
15:22 32.9 °F /  0.5 °C 20.5 °F /  -6.4 °C 30.05 in /  1017.5 hPa WNW 2.5 mph /  4 km/h 29.0 mph /  46.7 km/h 60 % 0.00 in /  0 mm
15:27 32.8 °F /  0.4 °C 20.4 °F /  -6.4 °C 30.05 in /  1017.5 hPa WNW 0.7 mph /  1.1 km/h 29.0 mph /  46.7 km/h 60 % 0.00 in /  0 mm
15:32 32.7 °F /  0.4 °C 20.3 °F /  -6.5 °C 30.05 in /  1017.5 hPa NW 0.9 mph /  1.4 km/h 29.0 mph /  46.7 km/h 60 % 0.00 in /  0 mm
15:37 32.7 °F /  0.4 °C 20.7 °F /  -6.3 °C 30.04 in /  1017.2 hPa NW 0.4 mph /  0.6 km/h 29.0 mph /  46.7 km/h 61 % 0.00 in /  0 mm
15:42 32.6 °F /  0.3 °C 20.6 °F /  -6.3 °C 30.05 in /  1017.5 hPa NNW 1.2 mph /  1.9 km/h 29.0 mph /  46.7 km/h 61 % 0.00 in /  0 mm
15:47 32.6 °F /  0.3 °C 20.2 °F /  -6.6 °C 30.05 in /  1017.5 hPa NNW 1.1 mph /  1.8 km/h 29.0 mph /  46.7 km/h 60 % 0.00 in /  0 mm
15:52 32.5 °F /  0.3 °C 19.3 °F /  -7.1 °C 30.05 in /  1017.5 hPa NNW 3.3 mph /  5.3 km/h 29.0 mph /  46.7 km/h 58 % 0.00 in /  0 mm
15:57 32.4 °F /  0.2 °C 20.0 °F /  -6.7 °C 30.05 in /  1017.5 hPa North 4.2 mph /  6.8 km/h 29.0 mph /  46.7 km/h 60 % 0.00 in /  0 mm
16:02 32.3 °F /  0.2 °C 20.0 °F /  -6.7 °C 30.06 in /  1017.8 hPa North 4.0 mph /  6.4 km/h 29.0 mph /  46.7 km/h 60 % 0.00 in /  0 mm
16:07 32.3 °F /  0.2 °C 20.3 °F /  -6.5 °C 30.06 in /  1017.8 hPa North 2.7 mph /  4.3 km/h 29.0 mph /  46.7 km/h 61 % 0.00 in /  0 mm
16:12 32.2 °F /  0.1 °C 19.9 °F /  -6.7 °C 30.06 in /  1017.8 hPa NNE 2.0 mph /  3.2 km/h 29.0 mph /  46.7 km/h 60 % 0.00 in /  0 mm
16:17 32.1 °F /  0.1 °C 19.8 °F /  -6.8 °C 30.06 in /  1017.8 hPa North 3.7 mph /  6 km/h 29.0 mph /  46.7 km/h 60 % 0.00 in /  0 mm
16:22 32.0 °F /  0 °C 19.7 °F /  -6.8 °C 30.06 in /  1017.8 hPa NW 1.2 mph /  1.9 km/h 29.0 mph /  46.7 km/h 60 % 0.00 in /  0 mm
16:27 32.0 °F /  0 °C 19.7 °F /  -6.8 °C 30.06 in /  1017.8 hPa WNW 1.8 mph /  2.9 km/h 29.0 mph /  46.7 km/h 60 % 0.00 in /  0 mm
16:33 31.9 °F /  -0.1 °C 19.6 °F /  -6.9 °C 30.07 in /  1018.2 hPa North 2.2 mph /  3.5 km/h 29.0 mph /  46.7 km/h 60 % 0.00 in /  0 mm
16:38 31.8 °F /  -0.1 °C 19.5 °F /  -6.9 °C 30.07 in /  1018.2 hPa North 0.5 mph /  0.8 km/h 29.0 mph /  46.7 km/h 60 % 0.00 in /  0 mm
16:43 31.8 °F /  -0.1 °C 19.5 °F /  -6.9 °C 30.08 in /  1018.5 hPa NNW 0.7 mph /  1.1 km/h 29.0 mph /  46.7 km/h 60 % 0.00 in /  0 mm
16:48 31.8 °F /  -0.1 °C 20.3 °F /  -6.5 °C 30.08 in /  1018.5 hPa North 2.6 mph /  4.2 km/h 29.0 mph /  46.7 km/h 62 % 0.00 in /  0 mm
16:53 31.7 °F /  -0.2 °C 20.2 °F /  -6.6 °C 30.08 in /  1018.5 hPa NW 1.8 mph /  2.9 km/h 29.0 mph /  46.7 km/h 62 % 0.00 in /  0 mm
16:58 31.7 °F /  -0.2 °C 20.2 °F /  -6.6 °C 30.09 in /  1018.8 hPa North 0.3 mph /  0.5 km/h 29.0 mph /  46.7 km/h 62 % 0.00 in /  0 mm
17:03 31.6 °F /  -0.2 °C 20.4 °F /  -6.4 °C 30.09 in /  1018.8 hPa WNW 1.4 mph /  2.3 km/h 29.0 mph /  46.7 km/h 63 % 0.00 in /  0 mm
17:08 31.5 °F /  -0.3 °C 20.0 °F /  -6.7 °C 30.09 in /  1018.8 hPa North 2.7 mph /  4.3 km/h 29.0 mph /  46.7 km/h 62 % 0.00 in /  0 mm
17:13 31.5 °F /  -0.3 °C 20.0 °F /  -6.7 °C 30.10 in /  1019.2 hPa North 1.2 mph /  1.9 km/h 29.0 mph /  46.7 km/h 62 % 0.00 in /  0 mm
17:18 31.4 °F /  -0.3 °C 20.6 °F /  -6.3 °C 30.09 in /  1018.8 hPa NW 1.6 mph /  2.6 km/h 29.0 mph /  46.7 km/h 64 % 0.00 in /  0 mm
17:23 31.4 °F /  -0.3 °C 20.6 °F /  -6.3 °C 30.10 in /  1019.2 hPa NW 2.6 mph /  4.2 km/h 29.0 mph /  46.7 km/h 64 % 0.00 in /  0 mm
17:28 31.3 °F /  -0.4 °C 20.2 °F /  -6.6 °C 30.11 in /  1019.5 hPa NW 2.6 mph /  4.2 km/h 29.0 mph /  46.7 km/h 63 % 0.00 in /  0 mm
17:33 31.2 °F /  -0.4 °C 20.1 °F /  -6.6 °C 30.11 in /  1019.5 hPa NW 2.8 mph /  4.5 km/h 29.0 mph /  46.7 km/h 63 % 0.00 in /  0 mm
17:38 31.1 °F /  -0.5 °C 20.0 °F /  -6.7 °C 30.12 in /  1019.9 hPa NNW 2.7 mph /  4.3 km/h 29.0 mph /  46.7 km/h 63 % 0.00 in /  0 mm
17:43 31.0 °F /  -0.6 °C 19.9 °F /  -6.7 °C 30.12 in /  1019.9 hPa NW 3.1 mph /  5 km/h 29.0 mph /  46.7 km/h 63 % 0.00 in /  0 mm
17:49 31.0 °F /  -0.6 °C 19.9 °F /  -6.7 °C 30.12 in /  1019.9 hPa WNW 0.8 mph /  1.3 km/h 29.0 mph /  46.7 km/h 63 % 0.00 in /  0 mm
17:54 30.9 °F /  -0.6 °C 19.8 °F /  -6.8 °C 30.13 in /  1020.2 hPa NNW 1.8 mph /  2.9 km/h 29.0 mph /  46.7 km/h 63 % 0.00 in /  0 mm
17:59 30.8 °F /  -0.7 °C 19.7 °F /  -6.8 °C 30.13 in /  1020.2 hPa NNE 1.7 mph /  2.7 km/h 29.0 mph /  46.7 km/h 63 % 0.00 in /  0 mm
18:04 30.8 °F /  -0.7 °C 18.9 °F /  -7.3 °C 30.14 in /  1020.5 hPa NW 0.5 mph /  0.8 km/h 29.0 mph /  46.7 km/h 61 % 0.00 in /  0 mm
18:09 30.8 °F /  -0.7 °C 19.3 °F /  -7.1 °C 30.14 in /  1020.5 hPa NNW 0.6 mph /  1 km/h 29.0 mph /  46.7 km/h 62 % 0.00 in /  0 mm
18:14 30.8 °F /  -0.7 °C 18.9 °F /  -7.3 °C 30.14 in /  1020.5 hPa NNW 3.0 mph /  4.8 km/h 6.0 mph /  9.7 km/h 61 % 0.00 in /  0 mm
18:19 30.8 °F /  -0.7 °C 19.3 °F /  -7.1 °C 30.15 in /  1020.9 hPa NW 2.9 mph /  4.7 km/h 29.0 mph /  46.7 km/h 62 % 0.00 in /  0 mm
18:24 30.8 °F /  -0.7 °C 19.3 °F /  -7.1 °C 30.15 in /  1020.9 hPa NW 1.0 mph /  1.6 km/h 7.0 mph /  11.3 km/h 62 % 0.00 in /  0 mm
18:29 30.8 °F /  -0.7 °C 19.3 °F /  -7.1 °C 30.15 in /  1020.9 hPa NNW 3.0 mph /  4.8 km/h 6.0 mph /  9.7 km/h 62 % 0.00 in /  0 mm
18:34 30.8 °F /  -0.7 °C 19.3 °F /  -7.1 °C 30.15 in /  1020.9 hPa NW 1.0 mph /  1.6 km/h 7.0 mph /  11.3 km/h 62 % 0.00 in /  0 mm
18:39 30.8 °F /  -0.7 °C 19.3 °F /  -7.1 °C 30.14 in /  1020.5 hPa NW 3.0 mph /  4.8 km/h 7.0 mph /  11.3 km/h 62 % 0.00 in /  0 mm
18:44 30.8 °F /  -0.7 °C 19.7 °F /  -6.8 °C 30.15 in /  1020.9 hPa NNW 1.0 mph /  1.6 km/h 3.0 mph /  4.8 km/h 63 % 0.00 in /  0 mm
18:49 30.8 °F /  -0.7 °C 19.7 °F /  -6.8 °C 30.15 in /  1020.9 hPa NW 3.0 mph /  4.8 km/h 6.0 mph /  9.7 km/h 63 % 0.00 in /  0 mm
18:54 30.8 °F /  -0.7 °C 19.3 °F /  -7.1 °C 30.14 in /  1020.5 hPa NNW 5.0 mph /  8 km/h 7.0 mph /  11.3 km/h 62 % 0.00 in /  0 mm
18:59 30.8 °F /  -0.7 °C 19.3 °F /  -7.1 °C 30.15 in /  1020.9 hPa NW 3.7 mph /  6 km/h 29.0 mph /  46.7 km/h 62 % 0.00 in /  0 mm
19:04 30.8 °F /  -0.7 °C 18.9 °F /  -7.3 °C 30.16 in /  1021.2 hPa NW 2.1 mph /  3.4 km/h 29.0 mph /  46.7 km/h 61 % 0.00 in /  0 mm
19:09 30.7 °F /  -0.7 °C 19.2 °F /  -7.1 °C 30.16 in /  1021.2 hPa NW 2.5 mph /  4 km/h 29.0 mph /  46.7 km/h 62 % 0.00 in /  0 mm
19:14 30.7 °F /  -0.7 °C 19.2 °F /  -7.1 °C 30.17 in /  1021.6 hPa West 1.1 mph /  1.8 km/h 29.0 mph /  46.7 km/h 62 % 0.00 in /  0 mm
19:19 30.8 °F /  -0.7 °C 18.9 °F /  -7.3 °C 30.17 in /  1021.6 hPa WNW 3.2 mph /  5.1 km/h 29.0 mph /  46.7 km/h 61 % 0.00 in /  0 mm
19:24 30.7 °F /  -0.7 °C 18.8 °F /  -7.3 °C 30.17 in /  1021.6 hPa NNW 2.5 mph /  4 km/h 29.0 mph /  46.7 km/h 61 % 0.00 in /  0 mm
19:30 30.7 °F /  -0.7 °C 19.2 °F /  -7.1 °C 30.17 in /  1021.6 hPa NNW 1.7 mph /  2.7 km/h 29.0 mph /  46.7 km/h 62 % 0.00 in /  0 mm
19:35 30.7 °F /  -0.7 °C 19.2 °F /  -7.1 °C 30.17 in /  1021.6 hPa NNW 2.6 mph /  4.2 km/h 29.0 mph /  46.7 km/h 62 % 0.00 in /  0 mm
19:40 30.7 °F /  -0.7 °C 18.8 °F /  -7.3 °C 30.18 in /  1021.9 hPa North 2.7 mph /  4.3 km/h 29.0 mph /  46.7 km/h 61 % 0.00 in /  0 mm
19:45 30.7 °F /  -0.7 °C 18.4 °F /  -7.6 °C 30.17 in /  1021.6 hPa North 4.2 mph /  6.8 km/h 29.0 mph /  46.7 km/h 60 % 0.00 in /  0 mm
19:50 30.7 °F /  -0.7 °C 18.4 °F /  -7.6 °C 30.18 in /  1021.9 hPa NNW 2.5 mph /  4 km/h 29.0 mph /  46.7 km/h 60 % 0.00 in /  0 mm
19:55 30.6 °F /  -0.8 °C 18.3 °F /  -7.6 °C 30.18 in /  1021.9 hPa NNW 1.5 mph /  2.4 km/h 29.0 mph /  46.7 km/h 60 % 0.00 in /  0 mm
20:00 30.5 °F /  -0.8 °C 18.6 °F /  -7.4 °C 30.18 in /  1021.9 hPa NNW 2.0 mph /  3.2 km/h 29.0 mph /  46.7 km/h 61 % 0.00 in /  0 mm
20:05 30.5 °F /  -0.8 °C 18.3 °F /  -7.6 °C 30.17 in /  1021.6 hPa North 4.2 mph /  6.8 km/h 29.0 mph /  46.7 km/h 60 % 0.00 in /  0 mm
20:10 30.5 °F /  -0.8 °C 18.3 °F /  -7.6 °C 30.18 in /  1021.9 hPa WNW 1.9 mph /  3.1 km/h 29.0 mph /  46.7 km/h 60 % 0.00 in /  0 mm
20:15 30.4 °F /  -0.9 °C 18.2 °F /  -7.7 °C 30.19 in /  1022.2 hPa NNE 2.1 mph /  3.4 km/h 29.0 mph /  46.7 km/h 60 % 0.00 in /  0 mm
20:20 30.3 °F /  -0.9 °C 18.5 °F /  -7.5 °C 30.18 in /  1021.9 hPa NNW 3.0 mph /  4.8 km/h 29.0 mph /  46.7 km/h 61 % 0.00 in /  0 mm
20:25 30.3 °F /  -0.9 °C 18.5 °F /  -7.5 °C 30.19 in /  1022.2 hPa NNE 0.9 mph /  1.4 km/h 29.0 mph /  46.7 km/h 61 % 0.00 in /  0 mm
20:30 30.2 °F /  -1 °C 18.4 °F /  -7.6 °C 30.19 in /  1022.2 hPa NNE 2.1 mph /  3.4 km/h 29.0 mph /  46.7 km/h 61 % 0.00 in /  0 mm
20:35 30.1 °F /  -1.1 °C 18.3 °F /  -7.6 °C 30.19 in /  1022.2 hPa North 4.7 mph /  7.6 km/h 29.0 mph /  46.7 km/h 61 % 0.00 in /  0 mm
20:40 29.9 °F /  -1.2 °C 18.1 °F /  -7.7 °C 30.19 in /  1022.2 hPa North 4.1 mph /  6.6 km/h 29.0 mph /  46.7 km/h 61 % 0.00 in /  0 mm
20:46 29.8 °F /  -1.2 °C 18.4 °F /  -7.6 °C 30.19 in /  1022.2 hPa North 2.4 mph /  3.9 km/h 29.0 mph /  46.7 km/h 62 % 0.00 in /  0 mm
20:51 29.6 °F /  -1.3 °C 18.2 °F /  -7.7 °C 30.18 in /  1021.9 hPa North 4.6 mph /  7.4 km/h 29.0 mph /  46.7 km/h 62 % 0.00 in /  0 mm
20:56 29.5 °F /  -1.4 °C 18.1 °F /  -7.7 °C 30.18 in /  1021.9 hPa North 1.1 mph /  1.8 km/h 29.0 mph /  46.7 km/h 62 % 0.00 in /  0 mm
21:01 29.4 °F /  -1.4 °C 18.0 °F /  -7.8 °C 30.19 in /  1022.2 hPa NNE 1.8 mph /  2.9 km/h 29.0 mph /  46.7 km/h 62 % 0.00 in /  0 mm
21:06 29.4 °F /  -1.4 °C 17.6 °F /  -8 °C 30.20 in /  1022.6 hPa NNW 3.1 mph /  5 km/h 29.0 mph /  46.7 km/h 61 % 0.00 in /  0 mm
21:11 29.3 °F /  -1.5 °C 17.5 °F /  -8.1 °C 30.20 in /  1022.6 hPa NNE 5.3 mph /  8.5 km/h 29.0 mph /  46.7 km/h 61 % 0.00 in /  0 mm
21:16 29.3 °F /  -1.5 °C 17.5 °F /  -8.1 °C 30.20 in /  1022.6 hPa NE 1.6 mph /  2.6 km/h 29.0 mph /  46.7 km/h 61 % 0.00 in /  0 mm
21:21 29.3 °F /  -1.5 °C 17.5 °F /  -8.1 °C 30.20 in /  1022.6 hPa NNW 0.5 mph /  0.8 km/h 29.0 mph /  46.7 km/h 61 % 0.00 in /  0 mm
21:26 29.2 °F /  -1.6 °C 17.4 °F /  -8.1 °C 30.19 in /  1022.2 hPa NW 3.6 mph /  5.8 km/h 29.0 mph /  46.7 km/h 61 % 0.00 in /  0 mm
21:31 29.1 °F /  -1.6 °C 16.9 °F /  -8.4 °C 30.20 in /  1022.6 hPa NNW 2.9 mph /  4.7 km/h 29.0 mph /  46.7 km/h 60 % 0.00 in /  0 mm
21:36 29.0 °F /  -1.7 °C 16.8 °F /  -8.4 °C 30.20 in /  1022.6 hPa North 5.7 mph /  9.2 km/h 29.0 mph /  46.7 km/h 60 % 0.00 in /  0 mm
21:41 28.9 °F /  -1.7 °C 16.7 °F /  -8.5 °C 30.20 in /  1022.6 hPa NNW 5.4 mph /  8.7 km/h 29.0 mph /  46.7 km/h 60 % 0.00 in /  0 mm
21:46 28.7 °F /  -1.8 °C 16.6 °F /  -8.6 °C 30.20 in /  1022.6 hPa North 4.3 mph /  6.9 km/h 29.0 mph /  46.7 km/h 60 % 0.00 in /  0 mm
21:51 28.6 °F /  -1.9 °C 16.5 °F /  -8.6 °C 30.20 in /  1022.6 hPa NNE 4.6 mph /  7.4 km/h 29.0 mph /  46.7 km/h 60 % 0.00 in /  0 mm
21:56 28.5 °F /  -1.9 °C 16.4 °F /  -8.7 °C 30.21 in /  1022.9 hPa NNW 4.3 mph /  6.9 km/h 29.0 mph /  46.7 km/h 60 % 0.00 in /  0 mm
22:01 28.4 °F /  -2 °C 16.3 °F /  -8.7 °C 30.21 in /  1022.9 hPa NNE 3.0 mph /  4.8 km/h 29.0 mph /  46.7 km/h 60 % 0.00 in /  0 mm
22:06 28.4 °F /  -2 °C 16.7 °F /  -8.5 °C 30.21 in /  1022.9 hPa North 3.8 mph /  6.1 km/h 29.0 mph /  46.7 km/h 61 % 0.00 in /  0 mm
22:11 28.3 °F /  -2.1 °C 16.2 °F /  -8.8 °C 30.21 in /  1022.9 hPa NE 5.6 mph /  9 km/h 29.0 mph /  46.7 km/h 60 % 0.00 in /  0 mm
22:17 28.2 °F /  -2.1 °C 15.7 °F /  -9.1 °C 30.20 in /  1022.6 hPa NNE 6.1 mph /  9.8 km/h 29.0 mph /  46.7 km/h 59 % 0.00 in /  0 mm
22:22 28.1 °F /  -2.2 °C 15.6 °F /  -9.1 °C 30.20 in /  1022.6 hPa NNE 5.4 mph /  8.7 km/h 29.0 mph /  46.7 km/h 59 % 0.00 in /  0 mm
22:27 28.1 °F /  -2.2 °C 15.6 °F /  -9.1 °C 30.19 in /  1022.2 hPa NNE 5.6 mph /  9 km/h 29.0 mph /  46.7 km/h 59 % 0.00 in /  0 mm
22:32 28.0 °F /  -2.2 °C 15.5 °F /  -9.2 °C 30.20 in /  1022.6 hPa North 5.9 mph /  9.5 km/h 29.0 mph /  46.7 km/h 59 % 0.00 in /  0 mm
22:37 27.9 °F /  -2.3 °C 15.4 °F /  -9.2 °C 30.20 in /  1022.6 hPa NNE 7.3 mph /  11.7 km/h 29.0 mph /  46.7 km/h 59 % 0.00 in /  0 mm
22:42 27.8 °F /  -2.3 °C 15.3 °F /  -9.3 °C 30.20 in /  1022.6 hPa NNE 5.0 mph /  8 km/h 29.0 mph /  46.7 km/h 59 % 0.00 in /  0 mm
22:47 27.7 °F /  -2.4 °C 15.6 °F /  -9.1 °C 30.20 in /  1022.6 hPa NNE 2.0 mph /  3.2 km/h 29.0 mph /  46.7 km/h 60 % 0.00 in /  0 mm
22:52 27.6 °F /  -2.4 °C 15.5 °F /  -9.2 °C 30.19 in /  1022.2 hPa NE 6.5 mph /  10.5 km/h 29.0 mph /  46.7 km/h 60 % 0.00 in /  0 mm
22:57 27.5 °F /  -2.5 °C 15.4 °F /  -9.2 °C 30.20 in /  1022.6 hPa NNE 4.5 mph /  7.2 km/h 29.0 mph /  46.7 km/h 60 % 0.00 in /  0 mm
23:02 27.4 °F /  -2.6 °C 14.9 °F /  -9.5 °C 30.20 in /  1022.6 hPa North 4.5 mph /  7.2 km/h 29.0 mph /  46.7 km/h 59 % 0.00 in /  0 mm
23:07 27.4 °F /  -2.6 °C 14.9 °F /  -9.5 °C 30.21 in /  1022.9 hPa NNE 4.8 mph /  7.7 km/h 29.0 mph /  46.7 km/h 59 % 0.00 in /  0 mm
23:12 27.3 °F /  -2.6 °C 15.2 °F /  -9.3 °C 30.22 in /  1023.2 hPa NNW 5.6 mph /  9 km/h 29.0 mph /  46.7 km/h 60 % 0.00 in /  0 mm
23:17 27.2 °F /  -2.7 °C 15.5 °F /  -9.2 °C 30.23 in /  1023.6 hPa NNE 6.6 mph /  10.6 km/h 29.0 mph /  46.7 km/h 61 % 0.00 in /  0 mm
23:22 27.1 °F /  -2.7 °C 15.4 °F /  -9.2 °C 30.23 in /  1023.6 hPa NE 5.5 mph /  8.9 km/h 29.0 mph /  46.7 km/h 61 % 0.00 in /  0 mm
23:27 27.0 °F /  -2.8 °C 14.9 °F /  -9.5 °C 30.23 in /  1023.6 hPa NNE 3.5 mph /  5.6 km/h 29.0 mph /  46.7 km/h 60 % 0.00 in /  0 mm
23:32 26.9 °F /  -2.8 °C 14.9 °F /  -9.5 °C 30.24 in /  1023.9 hPa NNE 6.8 mph /  10.9 km/h 29.0 mph /  46.7 km/h 60 % 0.00 in /  0 mm
23:38 26.8 °F /  -2.9 °C 14.4 °F /  -9.8 °C 30.24 in /  1023.9 hPa NNE 4.9 mph /  7.9 km/h 29.0 mph /  46.7 km/h 59 % 0.00 in /  0 mm
23:43 26.7 °F /  -2.9 °C 14.7 °F /  -9.6 °C 30.24 in /  1023.9 hPa NNE 5.8 mph /  9.3 km/h 29.0 mph /  46.7 km/h 60 % 0.00 in /  0 mm
23:48 26.6 °F /  -3 °C 14.2 °F /  -9.9 °C 30.24 in /  1023.9 hPa NNE 5.8 mph /  9.3 km/h 29.0 mph /  46.7 km/h 59 % 0.00 in /  0 mm
23:53 26.5 °F /  -3.1 °C 13.7 °F /  -10.2 °C 30.25 in /  1024.3 hPa NNE 6.0 mph /  9.7 km/h 29.0 mph /  46.7 km/h 58 % 0.00 in /  0 mm
23:58 26.4 °F /  -3.1 °C 14.0 °F /  -10 °C 30.25 in /  1024.3 hPa NNE 6.5 mph /  10.5 km/h 29.0 mph /  46.7 km/h 59 % 0.00 in /  0 mm
Crab Meadow Weather
Compliments of Weather Underground - 3 mb

Script developed by  Jim McMurry - jmcmurry@mwt.net Adapted for the template by  Wim van der Kuil - Leuven-Template.eu

Weather Terms: Dense Fog Advisory - Widespread dense fog reducing visibility to less than 1/4 mile.